sensor_id;sensor_type;location;lat;lon;timestamp;temperature;humidity
46091;DHT22;31826;53.572;10.170;2022-09-01T00:02:06;14.60;99.90
46091;DHT22;31826;53.572;10.170;2022-09-01T00:04:37;14.60;99.90
46091;DHT22;31826;53.572;10.170;2022-09-01T00:07:07;14.50;99.90
46091;DHT22;31826;53.572;10.170;2022-09-01T00:09:33;14.40;99.90
46091;DHT22;31826;53.572;10.170;2022-09-01T00:12:00;14.50;99.90
46091;DHT22;31826;53.572;10.170;2022-09-01T00:14:30;14.50;99.90
46091;DHT22;31826;53.572;10.170;2022-09-01T00:16:58;14.50;99.90
46091;DHT22;31826;53.572;10.170;2022-09-01T00:19:24;14.50;99.90
46091;DHT22;31826;53.572;10.170;2022-09-01T00:21:50;14.50;99.90
46091;DHT22;31826;53.572;10.170;2022-09-01T00:24:16;14.40;99.90
46091;DHT22;31826;53.572;10.170;2022-09-01T00:26:43;14.40;99.90
46091;DHT22;31826;53.572;10.170;2022-09-01T00:29:09;14.30;99.90
46091;DHT22;31826;53.572;10.170;2022-09-01T00:31:35;14.30;99.90
46091;DHT22;31826;53.572;10.170;2022-09-01T00:34:01;14.40;99.90
46091;DHT22;31826;53.572;10.170;2022-09-01T00:36:28;14.40;99.90
46091;DHT22;31826;53.572;10.170;2022-09-01T00:38:54;14.50;99.90
46091;DHT22;31826;53.572;10.170;2022-09-01T00:41:23;14.40;99.90
46091;DHT22;31826;53.572;10.170;2022-09-01T00:43:50;14.40;99.90
46091;DHT22;31826;53.572;10.170;2022-09-01T00:46:26;14.40;99.90
46091;DHT22;31826;53.572;10.170;2022-09-01T00:48:56;14.30;99.90
46091;DHT22;31826;53.572;10.170;2022-09-01T00:51:24;14.30;99.90
46091;DHT22;31826;53.572;10.170;2022-09-01T00:53:51;14.20;99.90
46091;DHT22;31826;53.572;10.170;2022-09-01T00:56:17;14.10;99.90
46091;DHT22;31826;53.572;10.170;2022-09-01T00:58:43;14.10;99.90
46091;DHT22;31826;53.572;10.170;2022-09-01T01:01:10;14.10;99.90
46091;DHT22;31826;53.572;10.170;2022-09-01T01:03:36;14.20;99.90
46091;DHT22;31826;53.572;10.170;2022-09-01T01:06:09;14.20;99.90
46091;DHT22;31826;53.572;10.170;2022-09-01T01:08:37;14.30;99.90
46091;DHT22;31826;53.572;10.170;2022-09-01T01:11:13;14.20;99.90
46091;DHT22;31826;53.572;10.170;2022-09-01T01:13:47;14.20;99.90
46091;DHT22;31826;53.572;10.170;2022-09-01T01:16:14;14.20;99.90
46091;DHT22;31826;53.572;10.170;2022-09-01T01:18:41;14.10;99.90
46091;DHT22;31826;53.572;10.170;2022-09-01T01:21:13;14.10;99.90
46091;DHT22;31826;53.572;10.170;2022-09-01T01:26:31;14.00;99.90
46091;DHT22;31826;53.572;10.170;2022-09-01T01:28:57;14.10;99.90
46091;DHT22;31826;53.572;10.170;2022-09-01T01:31:22;14.00;99.90
46091;DHT22;31826;53.572;10.170;2022-09-01T01:33:54;14.00;99.90
46091;DHT22;31826;53.572;10.170;2022-09-01T01:36:24;14.00;99.90
46091;DHT22;31826;53.572;10.170;2022-09-01T01:38:58;14.00;99.90
46091;DHT22;31826;53.572;10.170;2022-09-01T01:41:26;14.00;99.90
46091;DHT22;31826;53.572;10.170;2022-09-01T01:43:56;14.00;99.90
46091;DHT22;31826;53.572;10.170;2022-09-01T01:46:22;14.00;99.90
46091;DHT22;31826;53.572;10.170;2022-09-01T01:48:51;14.00;99.90
46091;DHT22;31826;53.572;10.170;2022-09-01T01:51:18;14.00;99.90
46091;DHT22;31826;53.572;10.170;2022-09-01T01:53:46;13.90;99.90
46091;DHT22;31826;53.572;10.170;2022-09-01T01:56:17;14.00;99.90
46091;DHT22;31826;53.572;10.170;2022-09-01T01:58:44;13.90;99.90
46091;DHT22;31826;53.572;10.170;2022-09-01T02:01:10;13.90;99.90
46091;DHT22;31826;53.572;10.170;2022-09-01T02:03:38;13.90;99.90
46091;DHT22;31826;53.572;10.170;2022-09-01T02:06:06;13.90;99.90
46091;DHT22;31826;53.572;10.170;2022-09-01T02:08:36;13.90;99.90
46091;DHT22;31826;53.572;10.170;2022-09-01T02:11:03;13.80;99.90
46091;DHT22;31826;53.572;10.170;2022-09-01T02:13:30;13.80;99.90
46091;DHT22;31826;53.572;10.170;2022-09-01T02:15:59;13.80;99.90
46091;DHT22;31826;53.572;10.170;2022-09-01T02:18:31;13.80;99.90
46091;DHT22;31826;53.572;10.170;2022-09-01T02:21:00;13.80;99.90
46091;DHT22;31826;53.572;10.170;2022-09-01T02:23:27;13.90;99.90
46091;DHT22;31826;53.572;10.170;2022-09-01T02:25:57;13.80;99.90
46091;DHT22;31826;53.572;10.170;2022-09-01T02:28:28;13.90;99.90
46091;DHT22;31826;53.572;10.170;2022-09-01T02:30:57;13.60;99.90
46091;DHT22;31826;53.572;10.170;2022-09-01T02:33:25;13.60;99.90
46091;DHT22;31826;53.572;10.170;2022-09-01T02:35:58;13.60;99.90
46091;DHT22;31826;53.572;10.170;2022-09-01T02:38:25;13.60;99.90
46091;DHT22;31826;53.572;10.170;2022-09-01T02:40:56;13.60;99.90
46091;DHT22;31826;53.572;10.170;2022-09-01T02:43:23;13.50;99.90
46091;DHT22;31826;53.572;10.170;2022-09-01T02:45:51;13.60;99.90
46091;DHT22;31826;53.572;10.170;2022-09-01T02:48:19;13.50;99.90
46091;DHT22;31826;53.572;10.170;2022-09-01T02:50:49;13.40;99.90
46091;DHT22;31826;53.572;10.170;2022-09-01T02:53:15;13.40;99.90
46091;DHT22;31826;53.572;10.170;2022-09-01T02:55:42;13.40;99.90
46091;DHT22;31826;53.572;10.170;2022-09-01T02:58:08;13.40;99.90
46091;DHT22;31826;53.572;10.170;2022-09-01T03:00:43;13.40;99.90
46091;DHT22;31826;53.572;10.170;2022-09-01T03:03:10;13.40;99.90
46091;DHT22;31826;53.572;10.170;2022-09-01T03:05:37;13.30;99.90
46091;DHT22;31826;53.572;10.170;2022-09-01T03:08:09;13.40;99.90
46091;DHT22;31826;53.572;10.170;2022-09-01T03:10:38;13.30;99.90
46091;DHT22;31826;53.572;10.170;2022-09-01T03:13:17;13.30;99.90
46091;DHT22;31826;53.572;10.170;2022-09-01T03:15:44;13.30;99.90
46091;DHT22;31826;53.572;10.170;2022-09-01T03:18:12;13.30;99.90
46091;DHT22;31826;53.572;10.170;2022-09-01T03:20:40;13.20;99.90
46091;DHT22;31826;53.572;10.170;2022-09-01T03:23:13;13.20;99.90
46091;DHT22;31826;53.572;10.170;2022-09-01T03:25:42;13.20;99.90
46091;DHT22;31826;53.572;10.170;2022-09-01T03:28:08;13.20;99.90
46091;DHT22;31826;53.572;10.170;2022-09-01T03:30:37;13.20;99.90
46091;DHT22;31826;53.572;10.170;2022-09-01T03:33:06;13.30;99.90
46091;DHT22;31826;53.572;10.170;2022-09-01T03:35:32;13.30;99.90
46091;DHT22;31826;53.572;10.170;2022-09-01T03:38:00;13.30;99.90
46091;DHT22;31826;53.572;10.170;2022-09-01T03:40:31;13.30;99.90
46091;DHT22;31826;53.572;10.170;2022-09-01T03:43:02;13.30;99.90
46091;DHT22;31826;53.572;10.170;2022-09-01T03:45:29;13.30;99.90
46091;DHT22;31826;53.572;10.170;2022-09-01T03:47:59;13.20;99.90
46091;DHT22;31826;53.572;10.170;2022-09-01T03:50:24;13.20;99.90
46091;DHT22;31826;53.572;10.170;2022-09-01T03:52:55;13.30;99.90
46091;DHT22;31826;53.572;10.170;2022-09-01T03:55:26;13.20;99.90
46091;DHT22;31826;53.572;10.170;2022-09-01T03:57:58;13.20;99.90
46091;DHT22;31826;53.572;10.170;2022-09-01T04:00:27;13.20;99.90
46091;DHT22;31826;53.572;10.170;2022-09-01T04:02:56;13.20;99.90
46091;DHT22;31826;53.572;10.170;2022-09-01T04:05:27;13.20;99.90
46091;DHT22;31826;53.572;10.170;2022-09-01T04:07:56;13.20;99.90
46091;DHT22;31826;53.572;10.170;2022-09-01T04:10:23;13.10;99.90
46091;DHT22;31826;53.572;10.170;2022-09-01T04:12:49;13.10;99.90
46091;DHT22;31826;53.572;10.170;2022-09-01T04:15:16;13.00;99.90
46091;DHT22;31826;53.572;10.170;2022-09-01T04:17:45;13.10;99.90
46091;DHT22;31826;53.572;10.170;2022-09-01T04:20:52;13.00;99.90
46091;DHT22;31826;53.572;10.170;2022-09-01T04:23:28;13.10;99.90
46091;DHT22;31826;53.572;10.170;2022-09-01T04:26:09;13.10;99.90
46091;DHT22;31826;53.572;10.170;2022-09-01T04:28:40;13.10;99.90
46091;DHT22;31826;53.572;10.170;2022-09-01T04:31:08;13.20;99.90
46091;DHT22;31826;53.572;10.170;2022-09-01T04:33:36;13.10;99.90
46091;DHT22;31826;53.572;10.170;2022-09-01T04:36:22;13.10;99.90
46091;DHT22;31826;53.572;10.170;2022-09-01T04:38:51;13.10;99.90
46091;DHT22;31826;53.572;10.170;2022-09-01T04:41:21;13.00;99.90
46091;DHT22;31826;53.572;10.170;2022-09-01T04:43:48;13.00;99.90
46091;DHT22;31826;53.572;10.170;2022-09-01T04:46:19;13.00;99.90
46091;DHT22;31826;53.572;10.170;2022-09-01T04:48:46;12.90;99.90
46091;DHT22;31826;53.572;10.170;2022-09-01T04:51:13;12.90;99.90
46091;DHT22;31826;53.572;10.170;2022-09-01T04:53:40;13.00;99.90
46091;DHT22;31826;53.572;10.170;2022-09-01T04:56:14;13.00;99.90
46091;DHT22;31826;53.572;10.170;2022-09-01T04:58:40;13.00;99.90
46091;DHT22;31826;53.572;10.170;2022-09-01T05:01:18;12.90;99.90
46091;DHT22;31826;53.572;10.170;2022-09-01T05:03:45;12.90;99.90
46091;DHT22;31826;53.572;10.170;2022-09-01T05:06:17;13.00;99.90
46091;DHT22;31826;53.572;10.170;2022-09-01T05:08:44;13.00;99.90
46091;DHT22;31826;53.572;10.170;2022-09-01T05:11:11;12.90;99.90
46091;DHT22;31826;53.572;10.170;2022-09-01T05:13:39;13.00;99.90
46091;DHT22;31826;53.572;10.170;2022-09-01T05:16:07;13.00;99.90
46091;DHT22;31826;53.572;10.170;2022-09-01T05:18:38;13.20;99.90
46091;DHT22;31826;53.572;10.170;2022-09-01T05:21:08;13.20;99.90
46091;DHT22;31826;53.572;10.170;2022-09-01T05:23:39;13.20;99.90
46091;DHT22;31826;53.572;10.170;2022-09-01T05:26:11;13.30;99.90
46091;DHT22;31826;53.572;10.170;2022-09-01T05:28:42;13.40;99.90
46091;DHT22;31826;53.572;10.170;2022-09-01T05:31:08;13.40;99.90
46091;DHT22;31826;53.572;10.170;2022-09-01T05:33:35;13.40;99.90
46091;DHT22;31826;53.572;10.170;2022-09-01T05:36:02;13.60;99.90
46091;DHT22;31826;53.572;10.170;2022-09-01T05:38:33;13.60;99.90
46091;DHT22;31826;53.572;10.170;2022-09-01T05:41:02;13.70;99.90
46091;DHT22;31826;53.572;10.170;2022-09-01T05:43:30;13.70;99.90
46091;DHT22;31826;53.572;10.170;2022-09-01T05:45:56;13.80;99.90
46091;DHT22;31826;53.572;10.170;2022-09-01T05:48:23;13.90;99.90
46091;DHT22;31826;53.572;10.170;2022-09-01T05:50:50;13.90;99.90
46091;DHT22;31826;53.572;10.170;2022-09-01T05:53:17;14.00;99.90
46091;DHT22;31826;53.572;10.170;2022-09-01T05:55:46;14.00;99.90
46091;DHT22;31826;53.572;10.170;2022-09-01T05:58:14;14.20;99.90
46091;DHT22;31826;53.572;10.170;2022-09-01T06:00:42;14.30;99.90
46091;DHT22;31826;53.572;10.170;2022-09-01T06:03:12;14.30;99.90
46091;DHT22;31826;53.572;10.170;2022-09-01T06:05:39;14.50;99.90
46091;DHT22;31826;53.572;10.170;2022-09-01T06:08:06;14.60;99.90
46091;DHT22;31826;53.572;10.170;2022-09-01T06:10:39;14.70;99.90
46091;DHT22;31826;53.572;10.170;2022-09-01T06:13:07;14.80;99.90
46091;DHT22;31826;53.572;10.170;2022-09-01T06:15:34;14.90;99.90
46091;DHT22;31826;53.572;10.170;2022-09-01T06:18:07;15.00;99.90
46091;DHT22;31826;53.572;10.170;2022-09-01T06:20:37;15.00;99.90
46091;DHT22;31826;53.572;10.170;2022-09-01T06:23:05;15.20;99.90
46091;DHT22;31826;53.572;10.170;2022-09-01T06:25:30;15.40;99.90
46091;DHT22;31826;53.572;10.170;2022-09-01T06:27:57;15.30;99.90
46091;DHT22;31826;53.572;10.170;2022-09-01T06:30:23;15.50;99.90
46091;DHT22;31826;53.572;10.170;2022-09-01T06:32:52;15.60;99.90
46091;DHT22;31826;53.572;10.170;2022-09-01T06:35:19;15.80;99.90
46091;DHT22;31826;53.572;10.170;2022-09-01T06:37:45;15.80;99.90
46091;DHT22;31826;53.572;10.170;2022-09-01T06:40:14;15.90;99.90
46091;DHT22;31826;53.572;10.170;2022-09-01T06:42:47;16.00;99.90
46091;DHT22;31826;53.572;10.170;2022-09-01T06:45:17;16.10;99.90
46091;DHT22;31826;53.572;10.170;2022-09-01T06:47:45;16.10;99.90
46091;DHT22;31826;53.572;10.170;2022-09-01T06:50:17;16.20;99.90
46091;DHT22;31826;53.572;10.170;2022-09-01T06:52:44;16.30;99.90
46091;DHT22;31826;53.572;10.170;2022-09-01T06:55:11;16.30;99.90
46091;DHT22;31826;53.572;10.170;2022-09-01T06:57:38;16.50;99.90
46091;DHT22;31826;53.572;10.170;2022-09-01T07:00:11;16.60;99.90
46091;DHT22;31826;53.572;10.170;2022-09-01T07:02:47;16.70;99.90
46091;DHT22;31826;53.572;10.170;2022-09-01T07:05:18;16.90;99.90
46091;DHT22;31826;53.572;10.170;2022-09-01T07:07:50;17.00;99.90
46091;DHT22;31826;53.572;10.170;2022-09-01T07:10:17;17.20;99.90
46091;DHT22;31826;53.572;10.170;2022-09-01T07:13:05;17.20;99.90
46091;DHT22;31826;53.572;10.170;2022-09-01T07:15:40;17.20;99.90
46091;DHT22;31826;53.572;10.170;2022-09-01T07:18:06;17.20;99.90
46091;DHT22;31826;53.572;10.170;2022-09-01T07:20:31;17.20;99.90
46091;DHT22;31826;53.572;10.170;2022-09-01T07:23:02;17.30;99.90
46091;DHT22;31826;53.572;10.170;2022-09-01T07:25:28;17.30;99.90
46091;DHT22;31826;53.572;10.170;2022-09-01T07:27:56;17.40;99.90
46091;DHT22;31826;53.572;10.170;2022-09-01T07:30:24;17.60;99.90
46091;DHT22;31826;53.572;10.170;2022-09-01T07:32:50;17.60;99.90
46091;DHT22;31826;53.572;10.170;2022-09-01T07:35:19;17.80;99.90
46091;DHT22;31826;53.572;10.170;2022-09-01T07:37:46;17.90;99.90
46091;DHT22;31826;53.572;10.170;2022-09-01T07:40:16;17.90;99.90
46091;DHT22;31826;53.572;10.170;2022-09-01T07:42:52;18.10;99.90
46091;DHT22;31826;53.572;10.170;2022-09-01T07:45:18;18.10;99.90
46091;DHT22;31826;53.572;10.170;2022-09-01T07:47:44;18.30;99.90
46091;DHT22;31826;53.572;10.170;2022-09-01T07:50:12;18.30;99.90
46091;DHT22;31826;53.572;10.170;2022-09-01T07:52:41;18.60;99.90
46091;DHT22;31826;53.572;10.170;2022-09-01T07:55:12;18.80;99.80
46091;DHT22;31826;53.572;10.170;2022-09-01T07:57:40;18.80;99.30
46091;DHT22;31826;53.572;10.170;2022-09-01T08:00:08;18.80;99.00
46091;DHT22;31826;53.572;10.170;2022-09-01T08:02:36;18.80;99.90
46091;DHT22;31826;53.572;10.170;2022-09-01T08:05:09;19.00;98.90
46091;DHT22;31826;53.572;10.170;2022-09-01T08:07:36;19.10;98.20
46091;DHT22;31826;53.572;10.170;2022-09-01T08:10:04;19.10;98.20
46091;DHT22;31826;53.572;10.170;2022-09-01T08:12:30;19.20;97.80
46091;DHT22;31826;53.572;10.170;2022-09-01T08:14:56;19.10;97.30
46091;DHT22;31826;53.572;10.170;2022-09-01T08:17:22;19.00;97.40
46091;DHT22;31826;53.572;10.170;2022-09-01T08:19:48;19.10;97.50
46091;DHT22;31826;53.572;10.170;2022-09-01T08:22:14;19.30;97.60
46091;DHT22;31826;53.572;10.170;2022-09-01T08:24:40;19.40;96.00
46091;DHT22;31826;53.572;10.170;2022-09-01T08:27:06;19.40;95.20
46091;DHT22;31826;53.572;10.170;2022-09-01T08:29:33;19.40;95.00
46091;DHT22;31826;53.572;10.170;2022-09-01T08:31:59;19.60;95.90
46091;DHT22;31826;53.572;10.170;2022-09-01T08:34:25;20.00;95.70
46091;DHT22;31826;53.572;10.170;2022-09-01T08:36:51;20.10;94.90
46091;DHT22;31826;53.572;10.170;2022-09-01T08:39:17;20.50;94.70
46091;DHT22;31826;53.572;10.170;2022-09-01T08:47:33;20.90;92.40
46091;DHT22;31826;53.572;10.170;2022-09-01T08:50:00;20.80;92.10
46091;DHT22;31826;53.572;10.170;2022-09-01T08:52:34;20.90;91.50
46091;DHT22;31826;53.572;10.170;2022-09-01T08:55:34;20.70;91.20
46091;DHT22;31826;53.572;10.170;2022-09-01T08:57:59;20.60;91.80
46091;DHT22;31826;53.572;10.170;2022-09-01T09:00:28;21.00;93.00
46091;DHT22;31826;53.572;10.170;2022-09-01T09:06:40;21.40;91.30
46091;DHT22;31826;53.572;10.170;2022-09-01T09:11:45;21.80;90.10
46091;DHT22;31826;53.572;10.170;2022-09-01T09:14:20;22.00;88.60
46091;DHT22;31826;53.572;10.170;2022-09-01T09:16:53;22.10;88.10
46091;DHT22;31826;53.572;10.170;2022-09-01T09:21:50;21.80;84.60
46091;DHT22;31826;53.572;10.170;2022-09-01T09:27:21;21.90;86.40
46091;DHT22;31826;53.572;10.170;2022-09-01T09:29:55;21.70;86.60
46091;DHT22;31826;53.572;10.170;2022-09-01T09:32:23;21.90;87.00
46091;DHT22;31826;53.572;10.170;2022-09-01T09:34:50;22.10;86.70
46091;DHT22;31826;53.572;10.170;2022-09-01T09:37:29;22.20;86.00
46091;DHT22;31826;53.572;10.170;2022-09-01T09:40:23;22.10;87.30
46091;DHT22;31826;53.572;10.170;2022-09-01T09:45:25;23.10;86.40
46091;DHT22;31826;53.572;10.170;2022-09-01T09:47:53;23.70;82.60
46091;DHT22;31826;53.572;10.170;2022-09-01T09:50:26;23.70;71.70
46091;DHT22;31826;53.572;10.170;2022-09-01T09:53:10;23.30;76.10
46091;DHT22;31826;53.572;10.170;2022-09-01T09:55:36;23.20;77.20
46091;DHT22;31826;53.572;10.170;2022-09-01T09:58:14;23.20;76.90
46091;DHT22;31826;53.572;10.170;2022-09-01T10:01:04;23.90;76.80
46091;DHT22;31826;53.572;10.170;2022-09-01T10:03:37;24.40;76.00
46091;DHT22;31826;53.572;10.170;2022-09-01T10:06:10;24.70;73.60
46091;DHT22;31826;53.572;10.170;2022-09-01T10:08:41;24.50;72.30
46091;DHT22;31826;53.572;10.170;2022-09-01T10:11:24;23.70;73.60
46091;DHT22;31826;53.572;10.170;2022-09-01T10:13:52;24.10;71.30
46091;DHT22;31826;53.572;10.170;2022-09-01T10:16:30;24.10;71.10
46091;DHT22;31826;53.572;10.170;2022-09-01T10:18:58;24.50;72.90
46091;DHT22;31826;53.572;10.170;2022-09-01T10:23:54;24.70;69.50
46091;DHT22;31826;53.572;10.170;2022-09-01T10:26:24;24.80;72.60
46091;DHT22;31826;53.572;10.170;2022-09-01T10:29:03;25.50;71.50
46091;DHT22;31826;53.572;10.170;2022-09-01T10:31:31;25.90;68.80
46091;DHT22;31826;53.572;10.170;2022-09-01T10:33:57;26.10;67.70
46091;DHT22;31826;53.572;10.170;2022-09-01T10:36:24;26.10;63.50
46091;DHT22;31826;53.572;10.170;2022-09-01T10:38:49;25.70;66.80
46091;DHT22;31826;53.572;10.170;2022-09-01T10:41:45;25.40;66.20
46091;DHT22;31826;53.572;10.170;2022-09-01T10:44:22;25.30;65.60
46091;DHT22;31826;53.572;10.170;2022-09-01T10:46:49;25.90;66.50
46091;DHT22;31826;53.572;10.170;2022-09-01T10:49:23;25.90;65.90
46091;DHT22;31826;53.572;10.170;2022-09-01T10:52:06;25.50;65.10
46091;DHT22;31826;53.572;10.170;2022-09-01T10:59:49;25.10;67.10
46091;DHT22;31826;53.572;10.170;2022-09-01T11:02:17;24.60;68.30
46091;DHT22;31826;53.572;10.170;2022-09-01T11:17:54;23.80;74.70
46091;DHT22;31826;53.572;10.170;2022-09-01T11:20:33;23.80;72.50
46091;DHT22;31826;53.572;10.170;2022-09-01T11:23:27;23.80;73.20
46091;DHT22;31826;53.572;10.170;2022-09-01T11:26:43;24.40;72.50
46091;DHT22;31826;53.572;10.170;2022-09-01T11:28:45;24.50;72.30
46091;DHT22;31826;53.572;10.170;2022-09-01T11:31:28;24.10;72.90
46091;DHT22;31826;53.572;10.170;2022-09-01T11:34:12;23.70;73.40
46091;DHT22;31826;53.572;10.170;2022-09-01T11:36:46;23.50;75.10
46091;DHT22;31826;53.572;10.170;2022-09-01T11:41:52;24.10;74.80
46091;DHT22;31826;53.572;10.170;2022-09-01T11:44:39;24.10;71.20
46091;DHT22;31826;53.572;10.170;2022-09-01T11:49:49;23.70;72.40
46091;DHT22;31826;53.572;10.170;2022-09-01T11:52:17;23.70;72.10
46091;DHT22;31826;53.572;10.170;2022-09-01T11:54:43;24.40;71.10
46091;DHT22;31826;53.572;10.170;2022-09-01T11:57:33;24.70;66.60
46091;DHT22;31826;53.572;10.170;2022-09-01T12:00:04;25.10;65.90
46091;DHT22;31826;53.572;10.170;2022-09-01T12:02:33;25.50;65.00
46091;DHT22;31826;53.572;10.170;2022-09-01T12:05:02;25.30;67.10
46091;DHT22;31826;53.572;10.170;2022-09-01T12:07:44;25.60;66.00
46091;DHT22;31826;53.572;10.170;2022-09-01T12:10:19;25.60;66.00
46091;DHT22;31826;53.572;10.170;2022-09-01T12:12:45;26.20;64.40
46091;DHT22;31826;53.572;10.170;2022-09-01T12:15:23;25.90;64.40
46091;DHT22;31826;53.572;10.170;2022-09-01T12:17:50;25.50;64.90
46091;DHT22;31826;53.572;10.170;2022-09-01T12:20:24;25.60;64.00
46091;DHT22;31826;53.572;10.170;2022-09-01T12:22:50;25.40;64.40
46091;DHT22;31826;53.572;10.170;2022-09-01T12:25:28;25.50;65.60
46091;DHT22;31826;53.572;10.170;2022-09-01T12:27:54;25.30;63.00
46091;DHT22;31826;53.572;10.170;2022-09-01T12:30:21;25.20;61.90
46091;DHT22;31826;53.572;10.170;2022-09-01T12:32:48;24.60;62.90
46091;DHT22;31826;53.572;10.170;2022-09-01T12:35:23;24.60;64.60
46091;DHT22;31826;53.572;10.170;2022-09-01T12:37:49;26.10;62.40
46091;DHT22;31826;53.572;10.170;2022-09-01T12:40:23;26.10;59.30
46091;DHT22;31826;53.572;10.170;2022-09-01T12:42:50;27.00;58.90
46091;DHT22;31826;53.572;10.170;2022-09-01T12:45:41;27.40;58.30
46091;DHT22;31826;53.572;10.170;2022-09-01T12:48:23;27.50;57.00
46091;DHT22;31826;53.572;10.170;2022-09-01T12:50:49;27.50;57.10
46091;DHT22;31826;53.572;10.170;2022-09-01T12:53:18;27.80;57.20
46091;DHT22;31826;53.572;10.170;2022-09-01T12:56:04;28.20;58.00
46091;DHT22;31826;53.572;10.170;2022-09-01T12:58:31;28.90;58.40
46091;DHT22;31826;53.572;10.170;2022-09-01T13:01:05;29.10;55.40
46091;DHT22;31826;53.572;10.170;2022-09-01T13:03:33;28.90;53.90
46091;DHT22;31826;53.572;10.170;2022-09-01T13:06:01;29.00;54.60
46091;DHT22;31826;53.572;10.170;2022-09-01T13:08:30;29.40;56.60
46091;DHT22;31826;53.572;10.170;2022-09-01T13:11:04;29.00;53.50
46091;DHT22;31826;53.572;10.170;2022-09-01T13:13:31;29.20;55.80
46091;DHT22;31826;53.572;10.170;2022-09-01T13:15:58;28.80;56.70
46091;DHT22;31826;53.572;10.170;2022-09-01T13:18:31;28.30;58.10
46091;DHT22;31826;53.572;10.170;2022-09-01T13:20:57;28.50;59.00
46091;DHT22;31826;53.572;10.170;2022-09-01T13:23:23;28.30;57.60
46091;DHT22;31826;53.572;10.170;2022-09-01T13:25:50;28.20;59.20
46091;DHT22;31826;53.572;10.170;2022-09-01T13:28:16;28.50;59.00
46091;DHT22;31826;53.572;10.170;2022-09-01T13:30:44;28.10;57.70
46091;DHT22;31826;53.572;10.170;2022-09-01T13:33:11;27.40;57.60
46091;DHT22;31826;53.572;10.170;2022-09-01T13:35:38;26.80;58.70
46091;DHT22;31826;53.572;10.170;2022-09-01T13:38:04;26.20;59.90
46091;DHT22;31826;53.572;10.170;2022-09-01T13:40:29;25.60;59.90
46091;DHT22;31826;53.572;10.170;2022-09-01T13:42:55;25.10;60.30
46091;DHT22;31826;53.572;10.170;2022-09-01T13:45:23;24.60;61.50
46091;DHT22;31826;53.572;10.170;2022-09-01T13:47:50;24.30;63.30
46091;DHT22;31826;53.572;10.170;2022-09-01T13:50:19;24.30;63.90
46091;DHT22;31826;53.572;10.170;2022-09-01T13:52:49;24.20;64.60
46091;DHT22;31826;53.572;10.170;2022-09-01T13:55:37;24.20;63.50
46091;DHT22;31826;53.572;10.170;2022-09-01T13:58:03;24.10;63.00
46091;DHT22;31826;53.572;10.170;2022-09-01T14:00:32;24.10;63.00
46091;DHT22;31826;53.572;10.170;2022-09-01T14:03:04;23.80;62.80
46091;DHT22;31826;53.572;10.170;2022-09-01T14:05:33;23.80;64.80
46091;DHT22;31826;53.572;10.170;2022-09-01T14:08:00;23.80;64.60
46091;DHT22;31826;53.572;10.170;2022-09-01T14:10:28;24.30;66.20
46091;DHT22;31826;53.572;10.170;2022-09-01T14:12:56;24.60;63.10
46091;DHT22;31826;53.572;10.170;2022-09-01T14:15:22;25.10;61.80
46091;DHT22;31826;53.572;10.170;2022-09-01T14:17:51;25.70;61.50
46091;DHT22;31826;53.572;10.170;2022-09-01T14:20:19;26.30;60.50
46091;DHT22;31826;53.572;10.170;2022-09-01T14:22:48;26.80;58.80
46091;DHT22;31826;53.572;10.170;2022-09-01T14:25:15;26.90;58.70
46091;DHT22;31826;53.572;10.170;2022-09-01T14:27:41;27.20;58.00
46091;DHT22;31826;53.572;10.170;2022-09-01T14:30:12;26.80;58.50
46091;DHT22;31826;53.572;10.170;2022-09-01T14:32:38;26.60;59.30
46091;DHT22;31826;53.572;10.170;2022-09-01T14:35:04;26.30;60.00
46091;DHT22;31826;53.572;10.170;2022-09-01T14:37:33;26.00;59.00
46091;DHT22;31826;53.572;10.170;2022-09-01T14:39:59;26.10;59.70
46091;DHT22;31826;53.572;10.170;2022-09-01T14:42:26;26.10;60.50
46091;DHT22;31826;53.572;10.170;2022-09-01T14:44:53;26.20;59.90
46091;DHT22;31826;53.572;10.170;2022-09-01T14:47:20;25.90;60.10
46091;DHT22;31826;53.572;10.170;2022-09-01T14:49:53;25.50;60.50
46091;DHT22;31826;53.572;10.170;2022-09-01T14:52:19;25.10;62.00
46091;DHT22;31826;53.572;10.170;2022-09-01T14:54:46;25.00;64.00
46091;DHT22;31826;53.572;10.170;2022-09-01T14:57:13;24.70;64.00
46091;DHT22;31826;53.572;10.170;2022-09-01T14:59:40;24.60;65.50
46091;DHT22;31826;53.572;10.170;2022-09-01T15:02:07;24.40;64.50
46091;DHT22;31826;53.572;10.170;2022-09-01T15:04:33;24.60;65.80
46091;DHT22;31826;53.572;10.170;2022-09-01T15:07:00;24.70;64.90
46091;DHT22;31826;53.572;10.170;2022-09-01T15:09:27;24.40;65.60
46091;DHT22;31826;53.572;10.170;2022-09-01T15:11:53;24.00;67.00
46091;DHT22;31826;53.572;10.170;2022-09-01T15:14:19;23.30;67.80
46091;DHT22;31826;53.572;10.170;2022-09-01T15:16:44;23.00;69.40
46091;DHT22;31826;53.572;10.170;2022-09-01T15:19:12;22.90;69.80
46091;DHT22;31826;53.572;10.170;2022-09-01T15:21:39;22.60;70.90
46091;DHT22;31826;53.572;10.170;2022-09-01T15:24:06;22.50;70.70
46091;DHT22;31826;53.572;10.170;2022-09-01T15:26:32;22.50;70.90
46091;DHT22;31826;53.572;10.170;2022-09-01T15:28:59;22.40;71.40
46091;DHT22;31826;53.572;10.170;2022-09-01T15:31:27;22.30;71.40
46091;DHT22;31826;53.572;10.170;2022-09-01T15:33:56;22.30;72.30
46091;DHT22;31826;53.572;10.170;2022-09-01T15:36:24;22.20;72.50
46091;DHT22;31826;53.572;10.170;2022-09-01T15:38:50;22.20;73.00
46091;DHT22;31826;53.572;10.170;2022-09-01T15:41:21;22.30;72.40
46091;DHT22;31826;53.572;10.170;2022-09-01T15:43:47;22.30;72.00
46091;DHT22;31826;53.572;10.170;2022-09-01T15:46:13;22.30;72.30
46091;DHT22;31826;53.572;10.170;2022-09-01T15:48:40;22.30;72.30
46091;DHT22;31826;53.572;10.170;2022-09-01T15:51:28;22.20;72.20
46091;DHT22;31826;53.572;10.170;2022-09-01T15:54:01;22.30;71.40
46091;DHT22;31826;53.572;10.170;2022-09-01T15:56:27;22.00;71.50
46091;DHT22;31826;53.572;10.170;2022-09-01T15:58:53;21.80;72.80
46091;DHT22;31826;53.572;10.170;2022-09-01T16:01:20;21.70;73.50
46091;DHT22;31826;53.572;10.170;2022-09-01T16:03:46;21.70;72.90
46091;DHT22;31826;53.572;10.170;2022-09-01T16:06:12;21.80;72.80
46091;DHT22;31826;53.572;10.170;2022-09-01T16:08:39;21.60;72.90
46091;DHT22;31826;53.572;10.170;2022-09-01T16:11:07;21.70;73.50
46091;DHT22;31826;53.572;10.170;2022-09-01T16:13:39;21.70;73.50
46091;DHT22;31826;53.572;10.170;2022-09-01T16:18:37;21.60;73.60
46091;DHT22;31826;53.572;10.170;2022-09-01T16:21:13;21.50;72.90
46091;DHT22;31826;53.572;10.170;2022-09-01T16:23:45;21.60;73.70